Camas, WA

5:11 PM PDT on July 07, 2015 (GMT -0700)
Lake Pointe | | Change Station
CLOSE
Current Station
Personal Weather Station
Location: Camas, WA
Elevation: 380 ft
Nearby Weather Stations

Elev 380 ft 45.61 °N, 122.43 °W | Updated 0 second ago

Partly Cloudy
Partly Cloudy
83.8 °F
Feels Like 83 °F
N
0.0
Wind Variable Wind from NE
Gusts 4.0 mph

Today
High -- | Low -- °F
--% Chance of Precip.
Yesterday
High -- | Low -- °F
Precip. -- in
5:28 AM 9:00 PM
Waning Gibbous, 60% visible
Pressure 29.85 in
Visibility 10.0 miles
Clouds Clear
Heat Index 83 °F
Dew Point 58 °F
Humidity 41%
Rainfall 0.00 in
Snow Depth Not available.
UV 5 out of 12
Pollen 8.30 out of 12
Air Quality Not available.
Flu Activity Not available.
METAR KTTD 072353Z 26005KT 10SM CLR 30/12 A2985 RMK AO2 SLP107 T03000117 10306 20211 56025

More Conditions Fewer Conditions

Pressure 29.85 in
Visibility 10.0 miles
Clouds Clear
Heat Index 83 °F
Dew Point 58 °F
Humidity 41%
Rainfall 0.00 in
Snow Depth Not available.
UV 5 out of 12
Pollen 8.30 out of 12
Air Quality Not available.
Flu Activity Not available.
METAR KTTD 072353Z 26005KT 10SM CLR 30/12 A2985 RMK AO2 SLP107 T03000117 10306 20211 56025

More Conditions Fewer Conditions

10-Day Weather Forecast

×

Almanac

Astronomy

Jul. 07, 2015 Rise Set
Actual Time
Civil Twilight
Nautical Twilight
Astronomical Twilight
Moon
Length of Visible Light
Length of Day
Tomorrow will be .
, % of the Moon is Illuminated

Today's Extremes

State Highs State Lows

Community

WunderPhotos

Upload Photos

1,835,970 photos uploaded!

WunderBlogs® & News

Nearby

Air Quality

  Air Quality AQ Index Pollutant
Not available.

Snow Depth

Station Depth Elevation

Earthquake Activity

City Distance Mag. Time & Date
Minimum magnitude displayed is 2.5.

Coastal Water Temperatures

Place Temperature

Stations

Nearby Weather Stations

Station Location Temp. Windchill Dew Point Humidity Wind Precip. Elev Updated Type